Terminal Aerodrome Forecast
Issued by NWS

Home | Current Version | Previous Version | Text Only | Print | Product List | Glossary Off
Versions: 1 2 3 4 5 6 7 8 9 10 11 12 13 14 15 16 17 18 19 20 21

929
FTUS42 KMHX 220538
TAFISO
TAF
KISO 220538Z 2206/2306 VRB04KT 3SM BR VCSH OVC005
     FM221000 05005KT 3/4SM BR VCSH OVC002
     FM221200 05006KT 2SM BR VCSH OVC005
     FM221500 06007KT P6SM SHRA BKN020
     FM230000 03005KT P6SM BKN015
     FM230200 04006KT 5SM BR OVC007
     FM230400 04006KT 3SM BR OVC003
      AMD LTD TO CLD VIS AND WIND=

USA.gov is the U.S. government's official web portal to all federal, state and local government web resources and services.